Time,TemperatureF,DewpointF,PressureIn,WindDirection,WindDirectionDegrees,WindSpeedMPH,WindSpeedGustMPH,Humidity,HourlyPrecipIn,Conditions,Clouds,dailyrainin,SoftwareType,DateUTC
2013-02-19 00:01:00,26.8,19.0,29.96,WNW,292,7.8,-999.0,72,-99.99,,,0.00,Acu-Link.com,2013-02-19 06:01:00,
2013-02-19 00:16:00,26.2,18.1,29.97,WNW,292,10.4,-999.0,71,-99.99,,,0.00,Acu-Link.com,2013-02-19 06:16:00,
2013-02-19 00:31:00,26.1,17.7,29.97,North,0,8.9,-999.0,70,-99.99,,,0.00,Acu-Link.com,2013-02-19 06:31:00,
2013-02-19 00:46:00,26.1,17.7,29.97,West,270,7.8,-999.0,70,-99.99,,,0.00,Acu-Link.com,2013-02-19 06:46:00,
2013-02-19 01:01:00,25.7,17.3,29.97,NNW,337,9.9,-999.0,70,-99.99,,,0.00,Acu-Link.com,2013-02-19 07:01:00,
2013-02-19 01:16:00,25.7,17.0,29.98,WNW,292,8.3,-999.0,69,-99.99,,,0.00,Acu-Link.com,2013-02-19 07:16:00,
2013-02-19 01:31:00,25.5,17.4,29.98,WNW,292,7.8,-999.0,71,-99.99,,,0.00,Acu-Link.com,2013-02-19 07:31:00,
2013-02-19 01:46:00,25.0,16.9,29.99,NW,315,5.3,-999.0,71,-99.99,,,0.00,Acu-Link.com,2013-02-19 07:46:00,
2013-02-19 02:02:00,23.4,16.7,29.98,West,270,4.2,-999.0,75,-99.99,,,0.00,Acu-Link.com,2013-02-19 08:02:00,
2013-02-19 02:17:00,21.9,15.8,30.00,West,270,1.7,-999.0,77,-99.99,,,0.00,Acu-Link.com,2013-02-19 08:17:00,
2013-02-19 02:32:00,21.2,16.3,29.99,West,270,2.2,-999.0,81,-99.99,,,0.00,Acu-Link.com,2013-02-19 08:32:00,
2013-02-19 02:47:00,21.7,16.8,29.99,North,0,2.7,-999.0,81,-99.99,,,0.00,Acu-Link.com,2013-02-19 08:47:00,
2013-02-19 03:17:00,22.8,17.3,30.00,West,270,2.7,-999.0,79,-99.99,,,0.00,Acu-Link.com,2013-02-19 09:17:00,
2013-02-19 03:32:00,23.7,17.9,30.01,NW,315,3.2,-999.0,78,-99.99,,,0.00,Acu-Link.com,2013-02-19 09:32:00,
2013-02-19 03:48:00,23.7,17.9,30.00,NW,315,1.7,-999.0,78,-99.99,,,0.00,Acu-Link.com,2013-02-19 09:48:00,
2013-02-19 04:03:00,23.7,17.9,30.01,West,270,7.3,-999.0,78,-99.99,,,0.00,Acu-Link.com,2013-02-19 10:03:00,
2013-02-19 04:18:00,23.9,17.8,30.01,NW,315,4.2,-999.0,77,-99.99,,,0.00,Acu-Link.com,2013-02-19 10:18:00,
2013-02-19 04:33:00,23.7,17.6,30.02,NW,315,8.3,-999.0,77,-99.99,,,0.00,Acu-Link.com,2013-02-19 10:33:00,
2013-02-19 04:48:00,23.4,17.6,30.02,West,270,4.7,-999.0,78,-99.99,,,0.00,Acu-Link.com,2013-02-19 10:48:00,
2013-02-19 05:04:00,23.2,17.7,30.02,NW,315,7.8,-999.0,79,-99.99,,,0.00,Acu-Link.com,2013-02-19 11:04:00,
2013-02-19 05:19:00,23.2,17.4,30.03,West,270,8.9,-999.0,78,-99.99,,,0.00,Acu-Link.com,2013-02-19 11:19:00,
2013-02-19 05:34:00,23.0,17.2,30.03,WNW,292,8.9,-999.0,78,-99.99,,,0.00,Acu-Link.com,2013-02-19 11:34:00,
2013-02-19 05:49:00,23.0,17.2,30.04,WNW,292,10.4,-999.0,78,-99.99,,,0.00,Acu-Link.com,2013-02-19 11:49:00,
2013-02-19 06:04:00,22.5,16.7,30.06,West,270,7.8,-999.0,78,-99.99,,,0.00,Acu-Link.com,2013-02-19 12:04:00,
2013-02-19 06:19:00,22.3,16.2,30.06,WNW,292,16.6,-999.0,77,-99.99,,,0.00,Acu-Link.com,2013-02-19 12:19:00,
2013-02-19 06:34:00,22.3,15.6,30.07,WNW,292,15.0,-999.0,75,-99.99,,,0.00,Acu-Link.com,2013-02-19 12:34:00,
2013-02-19 06:49:00,21.7,14.7,30.07,West,270,9.4,-999.0,74,-99.99,,,0.00,Acu-Link.com,2013-02-19 12:49:00,
2013-02-19 07:04:00,21.6,15.2,30.08,WNW,292,11.4,-999.0,76,-99.99,,,0.00,Acu-Link.com,2013-02-19 13:04:00,
2013-02-19 07:20:00,21.6,14.9,30.09,NW,315,10.4,-999.0,75,-99.99,,,0.00,Acu-Link.com,2013-02-19 13:20:00,
2013-02-19 07:35:00,22.3,15.0,30.10,West,270,10.4,-999.0,73,-99.99,,,0.00,Acu-Link.com,2013-02-19 13:35:00,
2013-02-19 07:50:00,22.6,14.3,30.09,WNW,292,9.4,-999.0,70,-99.99,,,0.00,Acu-Link.com,2013-02-19 13:50:00,
2013-02-19 08:05:00,22.6,12.3,30.09,West,270,9.9,-999.0,64,-99.99,,,0.00,Acu-Link.com,2013-02-19 14:05:00,
2013-02-19 08:20:00,22.6,11.9,30.11,WNW,292,20.2,-999.0,63,-99.99,,,0.00,Acu-Link.com,2013-02-19 14:20:00,
2013-02-19 08:35:00,23.4,13.0,30.11,WNW,292,10.4,-999.0,64,-99.99,,,0.00,Acu-Link.com,2013-02-19 14:35:00,
2013-02-19 08:50:00,23.4,12.0,30.12,WNW,292,12.5,-999.0,61,-99.99,,,0.00,Acu-Link.com,2013-02-19 14:50:00,
2013-02-19 09:05:00,23.2,11.0,30.14,NW,315,19.7,-999.0,59,-99.99,,,0.00,Acu-Link.com,2013-02-19 15:05:00,
2013-02-19 09:20:00,23.5,11.3,30.14,WNW,292,11.4,-999.0,59,-99.99,,,0.00,Acu-Link.com,2013-02-19 15:20:00,
2013-02-19 09:36:00,23.7,11.1,30.14,WNW,292,12.5,-999.0,58,-99.99,,,0.00,Acu-Link.com,2013-02-19 15:36:00,
2013-02-19 09:51:00,24.1,11.1,30.15,WNW,292,13.5,-999.0,57,-99.99,,,0.00,Acu-Link.com,2013-02-19 15:51:00,
2013-02-19 10:06:00,24.4,11.4,30.16,NNW,337,7.8,-999.0,57,-99.99,,,0.00,Acu-Link.com,2013-02-19 16:06:00,
2013-02-19 10:21:00,24.8,11.8,30.17,WNW,292,12.5,-999.0,57,-99.99,,,0.00,Acu-Link.com,2013-02-19 16:21:00,
2013-02-19 10:36:00,25.2,11.7,30.18,NW,315,10.9,-999.0,56,-99.99,,,0.00,Acu-Link.com,2013-02-19 16:36:00,
2013-02-19 10:51:00,25.7,12.2,30.18,West,270,9.4,-999.0,56,-99.99,,,0.00,Acu-Link.com,2013-02-19 16:51:00,
2013-02-19 11:06:00,26.1,12.6,30.18,West,270,11.9,-999.0,56,-99.99,,,0.00,Acu-Link.com,2013-02-19 17:06:00,
2013-02-19 11:21:00,27.0,13.0,30.18,WNW,292,10.4,-999.0,55,-99.99,,,0.00,Acu-Link.com,2013-02-19 17:21:00,
2013-02-19 11:37:00,27.1,12.3,30.19,WNW,292,10.9,-999.0,53,-99.99,,,0.00,Acu-Link.com,2013-02-19 17:37:00,
2013-02-19 11:52:00,28.2,14.1,30.19,West,270,9.4,-999.0,55,-99.99,,,0.00,Acu-Link.com,2013-02-19 17:52:00,
2013-02-19 12:07:00,28.8,13.9,30.19,WNW,292,15.5,-999.0,53,-99.99,,,0.00,Acu-Link.com,2013-02-19 18:07:00,
2013-02-19 12:22:00,29.7,13.4,30.19,WNW,292,14.5,-999.0,50,-99.99,,,0.00,Acu-Link.com,2013-02-19 18:22:00,
2013-02-19 12:37:00,30.6,14.2,30.18,West,270,13.5,-999.0,50,-99.99,,,0.00,Acu-Link.com,2013-02-19 18:37:00,
2013-02-19 12:52:00,29.8,13.5,30.18,West,270,8.3,-999.0,50,-99.99,,,0.00,Acu-Link.com,2013-02-19 18:52:00,
2013-02-19 13:07:00,30.9,14.5,30.18,NNW,337,13.5,-999.0,50,-99.99,,,0.00,Acu-Link.com,2013-02-19 19:07:00,
2013-02-19 13:22:00,31.5,13.6,30.17,WNW,292,19.1,-999.0,47,-99.99,,,0.00,Acu-Link.com,2013-02-19 19:22:00,
2013-02-19 13:38:00,32.2,14.7,30.18,WSW,247,6.8,-999.0,48,-99.99,,,0.00,Acu-Link.com,2013-02-19 19:38:00,
2013-02-19 13:53:00,31.8,12.9,30.17,NW,315,10.4,-999.0,45,-99.99,,,0.00,Acu-Link.com,2013-02-19 19:53:00,
2013-02-19 14:08:00,32.7,13.2,30.18,NE,45,8.3,-999.0,44,-99.99,,,0.00,Acu-Link.com,2013-02-19 20:08:00,
2013-02-19 14:23:00,32.0,12.1,30.18,WSW,247,5.8,-999.0,43,-99.99,,,0.00,Acu-Link.com,2013-02-19 20:23:00,
2013-02-19 14:38:00,33.3,12.7,30.18,West,270,14.0,-999.0,42,-99.99,,,0.00,Acu-Link.com,2013-02-19 20:38:00,
2013-02-19 14:53:00,33.3,11.6,30.19,West,270,17.6,-999.0,40,-99.99,,,0.00,Acu-Link.com,2013-02-19 20:53:00,
2013-02-19 15:08:00,32.7,11.1,30.19,WNW,292,8.3,-999.0,40,-99.99,,,0.00,Acu-Link.com,2013-02-19 21:08:00,
2013-02-19 15:24:00,33.4,11.1,30.18,NNW,337,10.9,-999.0,39,-99.99,,,0.00,Acu-Link.com,2013-02-19 21:24:00,
2013-02-19 15:39:00,32.4,9.7,30.18,NW,315,7.3,-999.0,38,-99.99,,,0.00,Acu-Link.com,2013-02-19 21:39:00,
2013-02-19 15:54:00,32.9,10.1,30.18,West,270,14.0,-999.0,38,-99.99,,,0.00,Acu-Link.com,2013-02-19 21:54:00,
2013-02-19 16:09:00,33.3,10.5,30.18,WNW,292,9.4,-999.0,38,-99.99,,,0.00,Acu-Link.com,2013-02-19 22:09:00,
2013-02-19 16:24:00,32.9,9.5,30.19,WNW,292,13.0,-999.0,37,-99.99,,,0.00,Acu-Link.com,2013-02-19 22:24:00,
2013-02-19 16:39:00,32.5,10.3,30.18,WNW,292,8.9,-999.0,39,-99.99,,,0.00,Acu-Link.com,2013-02-19 22:39:00,
2013-02-19 16:54:00,31.8,10.8,30.18,West,270,11.4,-999.0,41,-99.99,,,0.00,Acu-Link.com,2013-02-19 22:54:00,
2013-02-19 17:09:00,30.9,10.5,30.18,WNW,292,7.8,-999.0,42,-99.99,,,0.00,Acu-Link.com,2013-02-19 23:09:00,
2013-02-19 17:25:00,29.7,10.0,30.18,West,270,11.4,-999.0,43,-99.99,,,0.00,Acu-Link.com,2013-02-19 23:25:00,
2013-02-19 17:40:00,28.4,9.3,30.17,WNW,292,7.8,-999.0,44,-99.99,,,0.00,Acu-Link.com,2013-02-19 23:40:00,
2013-02-19 17:55:00,27.3,8.8,30.18,WNW,292,3.7,-999.0,45,-99.99,,,0.00,Acu-Link.com,2013-02-19 23:55:00,
2013-02-19 18:10:00,26.6,9.1,30.17,WNW,292,2.7,-999.0,47,-99.99,,,0.00,Acu-Link.com,2013-02-20 00:10:00,
2013-02-19 18:25:00,25.7,8.8,30.18,West,270,5.8,-999.0,48,-99.99,,,0.00,Acu-Link.com,2013-02-20 00:25:00,
2013-02-19 18:40:00,24.6,8.2,30.18,NNW,337,5.3,-999.0,49,-99.99,,,0.00,Acu-Link.com,2013-02-20 00:40:00,
2013-02-19 18:55:00,23.5,8.1,30.18,WNW,292,4.2,-999.0,51,-99.99,,,0.00,Acu-Link.com,2013-02-20 00:55:00,
2013-02-19 19:10:00,22.3,7.4,30.19,NNW,337,3.2,-999.0,52,-99.99,,,0.00,Acu-Link.com,2013-02-20 01:10:00,
2013-02-19 19:25:00,21.9,7.0,30.19,West,270,1.7,-999.0,52,-99.99,,,0.00,Acu-Link.com,2013-02-20 01:25:00,
2013-02-19 19:41:00,21.2,7.2,30.19,West,270,1.7,-999.0,54,-99.99,,,0.00,Acu-Link.com,2013-02-20 01:41:00,
2013-02-19 19:56:00,21.2,6.8,30.21,West,270,1.7,-999.0,53,-99.99,,,0.00,Acu-Link.com,2013-02-20 01:56:00,
2013-02-19 20:11:00,21.2,7.2,30.21,WNW,292,3.7,-999.0,54,-99.99,,,0.00,Acu-Link.com,2013-02-20 02:11:00,
2013-02-19 20:26:00,20.8,7.2,30.21,WNW,292,2.2,-999.0,55,-99.99,,,0.00,Acu-Link.com,2013-02-20 02:26:00,
2013-02-19 20:41:00,20.7,7.9,30.22,WNW,292,4.7,-999.0,57,-99.99,,,0.00,Acu-Link.com,2013-02-20 02:41:00,
2013-02-19 20:56:00,20.8,8.0,30.22,NW,315,4.2,-999.0,57,-99.99,,,0.00,Acu-Link.com,2013-02-20 02:56:00,
2013-02-19 21:11:00,20.8,8.0,30.22,WNW,292,4.2,-999.0,57,-99.99,,,0.00,Acu-Link.com,2013-02-20 03:11:00,
2013-02-19 21:26:00,19.8,7.1,30.25,West,270,2.2,-999.0,57,-99.99,,,0.00,Acu-Link.com,2013-02-20 03:26:00,
2013-02-19 21:41:00,18.9,7.0,30.26,WNW,292,2.2,-999.0,59,-99.99,,,0.00,Acu-Link.com,2013-02-20 03:41:00,
2013-02-19 21:57:00,18.5,7.3,30.23,NNW,337,4.7,-999.0,61,-99.99,,,0.00,Acu-Link.com,2013-02-20 03:57:00,
2013-02-19 22:12:00,18.3,7.5,30.22,NNW,337,5.3,-999.0,62,-99.99,,,0.00,Acu-Link.com,2013-02-20 04:12:00,
2013-02-19 22:27:00,18.0,7.2,30.24,NW,315,2.7,-999.0,62,-99.99,,,0.00,Acu-Link.com,2013-02-20 04:27:00,
2013-02-19 22:42:00,18.1,6.9,30.23,West,270,3.2,-999.0,61,-99.99,,,0.00,Acu-Link.com,2013-02-20 04:42:00,
2013-02-19 22:57:00,18.0,6.9,30.26,West,270,4.2,-999.0,61,-99.99,,,0.00,Acu-Link.com,2013-02-20 04:57:00,
2013-02-19 23:12:00,18.5,7.0,30.26,NW,315,4.2,-999.0,60,-99.99,,,0.00,Acu-Link.com,2013-02-20 05:12:00,
2013-02-19 23:27:00,18.3,6.4,30.26,NW,315,1.7,-999.0,59,-99.99,,,0.00,Acu-Link.com,2013-02-20 05:27:00,
2013-02-19 23:42:00,15.8,6.2,30.27,West,270,0.0,-999.0,65,-99.99,,,0.00,Acu-Link.com,2013-02-20 05:42:00,
2013-02-19 23:57:00,16.2,7.8,30.25,NNW,337,3.2,-999.0,69,-99.99,,,0.00,Acu-Link.com,2013-02-20 05:57:00,